Time;durP1;ratioP1;P1;durP2;ratioP2;P2;SDS_P1;SDS_P2;PMS_P1;PMS_P2;Temp;Humidity;BMP_temperature;BMP_pressure;BME280_temperature;BME280_humidity;BME280_pressure;Samples;Min_cycle;Max_cycle;Signal;HPM_P1;HPM_P2
2023/07/09 00:02:42;;;;;;;9.83;6.30;;;14.30;99.90;;;;;;8351952;28;20239;-65
2023/07/09 00:06:43;;;;;;;6.47;5.87;;;14.20;99.90;;;;;;8351722;28;20197;-63
2023/07/09 00:10:44;;;;;;;6.73;5.87;;;14.20;99.90;;;;;;8348638;28;20283;-64
2023/07/09 00:14:45;;;;;;;7.30;6.60;;;14.20;99.90;;;;;;8349256;28;20215;-65
2023/07/09 00:18:48;;;;;;;6.73;5.67;;;14.10;99.90;;;;;;8349965;28;20192;-65
2023/07/09 00:22:52;;;;;;;7.43;6.67;;;14.00;99.90;;;;;;8352204;28;20217;-65
2023/07/09 00:26:52;;;;;;;9.33;6.97;;;13.90;99.90;;;;;;8353904;28;20193;-65
2023/07/09 00:30:53;;;;;;;7.30;6.60;;;13.80;99.90;;;;;;8353490;28;20189;-65
2023/07/09 00:34:55;;;;;;;6.73;6.13;;;13.80;99.90;;;;;;8347248;28;20188;-65
2023/07/09 00:38:59;;;;;;;8.70;6.93;;;13.70;99.90;;;;;;8347654;28;20210;-64
2023/07/09 00:43:08;;;;;;;7.30;6.60;;;13.70;99.90;;;;;;8344389;28;20205;-65
2023/07/09 00:47:21;;;;;;;6.80;6.03;;;13.70;99.90;;;;;;8346986;28;20200;-65
2023/07/09 00:51:22;;;;;;;7.67;6.87;;;13.70;99.90;;;;;;8350324;28;20211;-65
2023/07/09 00:55:29;;;;;;;7.40;6.70;;;13.60;1.00;;;;;;8364724;28;20295;-65
2023/07/09 00:59:31;;;;;;;7.83;6.50;;;13.60;1.00;;;;;;8345878;28;20291;-65
2023/07/09 01:03:36;;;;;;;7.37;6.67;;;13.60;1.00;;;;;;8350444;28;20255;-65
2023/07/09 01:07:40;;;;;;;7.77;6.97;;;13.50;1.00;;;;;;8345098;28;20194;-64
2023/07/09 01:11:41;;;;;;;7.57;6.80;;;13.50;1.00;;;;;;8345204;28;20192;-64
2023/07/09 01:15:42;;;;;;;9.67;7.43;;;13.50;1.00;;;;;;8350638;28;20212;-64
2023/07/09 01:19:48;;;;;;;7.43;6.73;;;13.50;1.00;;;;;;8344270;28;20206;-65
2023/07/09 01:23:51;;;;;;;7.40;6.70;;;13.40;1.00;;;;;;8343844;28;20216;-65
2023/07/09 01:27:52;;;;;;;7.03;6.33;;;13.30;1.00;;;;;;8348712;28;20193;-65
2023/07/09 01:31:53;;;;;;;8.63;7.03;;;13.30;1.00;;;;;;8349795;28;20195;-65
2023/07/09 01:36:00;;;;;;;8.30;6.60;;;13.20;1.00;;;;;;8343787;28;20196;-66
2023/07/09 01:40:01;;;;;;;8.77;7.67;;;13.10;1.00;;;;;;8359015;28;20189;-63
2023/07/09 01:44:04;;;;;;;8.33;7.53;;;13.10;43.10;;;;;;8349087;28;20215;-64
2023/07/09 01:48:07;;;;;;;8.27;7.47;;;13.00;12.10;;;;;;8361704;28;20192;-64
2023/07/09 01:52:08;;;;;;;9.87;7.33;;;12.90;99.90;;;;;;8359424;28;20194;-64
2023/07/09 01:56:10;;;;;;;8.33;7.53;;;12.90;73.60;;;;;;8363641;28;20209;-64
2023/07/09 02:00:14;;;;;;;7.47;6.73;;;12.80;70.70;;;;;;8346929;28;20215;-64
2023/07/09 02:04:17;;;;;;;11.77;8.83;;;12.80;48.90;;;;;;8344874;28;20252;-64
2023/07/09 02:08:18;;;;;;;9.70;8.80;;;12.70;99.90;;;;;;8349019;28;20214;-62
2023/07/09 02:12:21;;;;;;;8.97;8.13;;;12.70;1.00;;;;;;8347648;28;20212;-66
2023/07/09 02:16:22;;;;;;;10.50;9.37;;;12.60;1.00;;;;;;8359725;28;20189;-64
2023/07/09 02:20:23;;;;;;;9.20;8.30;;;12.60;1.00;;;;;;8342016;28;20191;-63
2023/07/09 02:24:25;;;;;;;9.07;8.17;;;12.50;1.00;;;;;;8343823;28;20208;-64
2023/07/09 02:28:25;;;;;;;9.00;8.03;;;12.40;1.00;;;;;;8349819;28;20181;-64
2023/07/09 02:32:27;;;;;;;9.67;8.60;;;12.40;1.00;;;;;;8344413;28;20196;-66
2023/07/09 02:36:28;;;;;;;9.27;8.37;;;12.40;1.00;;;;;;8340408;28;20205;-64
2023/07/09 02:40:28;;;;;;;11.23;9.50;;;12.20;99.90;;;;;;8346993;28;20192;-65
2023/07/09 02:44:29;;;;;;;10.60;9.10;;;12.20;99.90;;;;;;8345922;28;20189;-65
2023/07/09 02:48:30;;;;;;;10.97;8.80;;;12.30;99.90;;;;;;8344358;28;20184;-65
2023/07/09 02:52:37;;;;;;;9.37;8.47;;;12.30;85.10;;;;;;8349919;28;20190;-65
2023/07/09 02:56:38;;;;;;;9.53;8.57;;;12.30;1.00;;;;;;8364284;28;20190;-66
2023/07/09 03:00:39;;;;;;;10.83;9.73;;;12.20;1.00;;;;;;8361617;28;20199;-64
2023/07/09 03:04:40;;;;;;;9.27;8.37;;;12.10;1.00;;;;;;8346502;28;20221;-66
2023/07/09 03:08:41;;;;;;;9.57;8.60;;;11.90;1.00;;;;;;8342761;28;20185;-66
2023/07/09 03:12:42;;;;;;;9.83;8.83;;;12.00;1.00;;;;;;8348654;28;20243;-65
2023/07/09 03:16:43;;;;;;;11.30;9.77;;;12.10;99.90;;;;;;8347639;28;20209;-67
2023/07/09 03:20:47;;;;;;;12.60;10.10;;;12.10;1.00;;;;;;8341193;28;20193;-66
2023/07/09 03:24:48;;;;;;;8.60;7.73;;;12.60;1.00;;;;;;8360303;28;20190;-66
2023/07/09 03:28:49;;;;;;;11.77;9.50;;;13.30;99.90;;;;;;8348320;28;20186;-66
2023/07/09 03:32:54;;;;;;;9.27;8.37;;;14.00;1.00;;;;;;8349899;28;20234;-67
2023/07/09 03:36:54;;;;;;;8.80;7.90;;;14.70;99.90;;;;;;8357535;28;20201;-66
2023/07/09 03:40:55;;;;;;;9.57;7.97;;;15.50;99.90;;;;;;8345480;28;20208;-67
2023/07/09 03:44:56;;;;;;;7.83;7.03;;;16.10;99.90;;;;;;8348732;28;20209;-66
2023/07/09 03:48:59;;;;;;;10.47;8.00;;;16.80;58.90;;;;;;8352489;28;20189;-67
2023/07/09 03:53:00;;;;;;;7.33;6.50;;;17.50;1.00;;;;;;8355092;28;20190;-64
2023/07/09 03:57:01;;;;;;;9.27;7.80;;;18.30;1.00;;;;;;8350844;28;20248;-66
2023/07/09 04:01:02;;;;;;;8.90;8.00;;;18.90;1.00;;;;;;8351112;28;20213;-67
2023/07/09 04:05:03;;;;;;;10.43;8.43;;;19.40;1.00;;;;;;8352095;28;20220;-64
2023/07/09 04:09:07;;;;;;;8.27;6.97;;;20.00;1.00;;;;;;8355651;28;20280;-66
2023/07/09 04:13:08;;;;;;;9.03;7.70;;;20.20;1.00;;;;;;8345296;28;20193;-66
2023/07/09 04:17:10;;;;;;;8.17;6.93;;;20.80;1.00;;;;;;8353781;28;20257;-68
2023/07/09 04:21:10;;;;;;;7.63;6.87;;;21.30;1.00;;;;;;8351525;28;20216;-66
2023/07/09 04:25:12;;;;;;;7.77;7.00;;;21.60;1.00;;;;;;8355347;28;20173;-66
2023/07/09 04:29:14;;;;;;;7.90;6.50;;;22.10;1.00;;;;;;8349762;28;20177;-66
2023/07/09 04:33:17;;;;;;;10.90;8.30;;;22.50;1.00;;;;;;8346332;28;20182;-65
2023/07/09 04:37:18;;;;;;;11.30;7.27;;;23.00;1.00;;;;;;8350394;28;20277;-65
2023/07/09 04:41:20;;;;;;;8.00;7.20;;;23.30;1.00;;;;;;8351229;28;20225;-67
2023/07/09 04:45:20;;;;;;;8.10;7.30;;;23.30;1.00;;;;;;8346331;28;20182;-68
2023/07/09 04:49:21;;;;;;;7.00;6.30;;;23.50;1.00;;;;;;8360792;28;20174;-67
2023/07/09 04:53:23;;;;;;;10.13;7.60;;;23.50;1.00;;;;;;8350539;28;20178;-67
2023/07/09 04:57:26;;;;;;;10.23;7.97;;;23.90;1.00;;;;;;8355359;28;20264;-66
2023/07/09 05:01:27;;;;;;;8.20;7.40;;;23.90;1.00;;;;;;8350450;28;20224;-66
2023/07/09 05:05:28;;;;;;;7.40;6.70;;;24.00;1.00;;;;;;8367128;28;20208;-66
2023/07/09 05:09:29;;;;;;;9.67;7.13;;;24.10;1.00;;;;;;8344594;28;20211;-67
2023/07/09 05:13:30;;;;;;;7.90;6.90;;;24.20;1.00;;;;;;8356526;28;20189;-66
2023/07/09 05:17:31;;;;;;;7.13;5.97;;;24.10;1.00;;;;;;8348617;28;20192;-66
2023/07/09 05:21:32;;;;;;;7.37;6.67;;;23.60;1.00;;;;;;8346547;28;20202;-66
2023/07/09 05:25:33;;;;;;;8.97;6.50;;;23.00;1.00;;;;;;8366727;28;20177;-67
2023/07/09 05:29:34;;;;;;;6.53;5.93;;;22.60;1.00;;;;;;8350307;28;20192;-67
2023/07/09 05:33:35;;;;;;;8.80;6.10;;;22.40;1.00;;;;;;8345865;28;20189;-67
2023/07/09 05:37:37;;;;;;;7.33;5.73;;;22.50;1.00;;;;;;8350900;28;20185;-69
2023/07/09 05:41:38;;;;;;;6.53;5.53;;;22.50;1.00;;;;;;8347681;28;20202;-67
2023/07/09 05:45:39;;;;;;;6.47;5.57;;;22.60;1.00;;;;;;8364964;28;20234;-67
2023/07/09 05:49:41;;;;;;;7.23;5.77;;;22.70;1.00;;;;;;8349495;28;20185;-66
2023/07/09 05:53:42;;;;;;;8.53;6.67;;;22.80;1.00;;;;;;8354168;28;20189;-66
2023/07/09 05:57:43;;;;;;;9.00;6.83;;;22.50;1.00;;;;;;8364241;28;20250;-65
2023/07/09 06:01:44;;;;;;;7.60;6.57;;;22.10;1.00;;;;;;8347104;28;20291;-65
2023/07/09 06:05:49;;;;;;;9.90;7.07;;;21.80;1.00;;;;;;8351220;28;20276;-65
2023/07/09 06:09:51;;;;;;;9.53;6.90;;;21.80;1.00;;;;;;8347398;28;20181;-67
2023/07/09 06:13:52;;;;;;;7.80;7.00;;;21.80;1.00;;;;;;8353281;28;20210;-68
2023/07/09 06:17:53;;;;;;;7.77;6.97;;;21.90;1.00;;;;;;8363143;28;20185;-67
2023/07/09 06:21:57;;;;;;;7.10;6.30;;;21.80;1.00;;;;;;8343517;28;20205;-66
2023/07/09 06:26:00;;;;;;;8.50;7.30;;;22.10;1.00;;;;;;8348068;28;20177;-65
2023/07/09 06:30:01;;;;;;;8.90;7.13;;;22.40;1.00;;;;;;8351807;28;20189;-67
2023/07/09 06:34:02;;;;;;;7.03;6.27;;;22.80;1.00;;;;;;8359848;28;20235;-67
2023/07/09 06:38:03;;;;;;;7.27;6.57;;;23.00;1.00;;;;;;8345477;28;20200;-65
2023/07/09 06:42:08;;;;;;;7.57;6.87;;;23.10;1.00;;;;;;8351560;28;20194;-66
2023/07/09 06:46:11;;;;;;;7.77;6.57;;;23.20;1.00;;;;;;8360619;28;20181;-65
2023/07/09 06:50:13;;;;;;;10.00;7.00;;;23.30;1.00;;;;;;8347041;28;20177;-66
2023/07/09 06:54:21;;;;;;;7.27;6.10;;;23.50;1.00;;;;;;8352171;28;20186;-67
2023/07/09 06:58:25;;;;;;;8.80;6.70;;;23.80;1.00;;;;;;8351221;28;20197;-65
2023/07/09 07:02:26;;;;;;;9.00;6.83;;;24.00;1.00;;;;;;8345337;28;20241;-66
2023/07/09 07:06:27;;;;;;;7.87;7.17;;;24.20;1.00;;;;;;8352198;28;20205;-67
2023/07/09 07:10:31;;;;;;;6.97;6.00;;;24.30;1.00;;;;;;8348589;28;20189;-66
2023/07/09 07:14:32;;;;;;;6.10;5.57;;;24.40;1.00;;;;;;8350223;28;20208;-67
2023/07/09 07:18:34;;;;;;;6.60;5.70;;;24.60;1.00;;;;;;8357542;28;20202;-66
2023/07/09 07:22:36;;;;;;;8.63;5.97;;;24.70;1.00;;;;;;8355509;28;20212;-67
2023/07/09 07:26:36;;;;;;;5.63;5.13;;;24.90;1.00;;;;;;8357500;28;20227;-67
2023/07/09 07:30:38;;;;;;;5.67;5.07;;;25.10;1.00;;;;;;8357821;28;20270;-67
2023/07/09 07:34:39;;;;;;;6.47;5.67;;;25.40;1.00;;;;;;8353628;28;20189;-67
2023/07/09 07:38:40;;;;;;;5.67;5.00;;;25.50;1.00;;;;;;8359007;28;20188;-66
2023/07/09 07:42:42;;;;;;;6.13;5.53;;;25.60;1.00;;;;;;8357839;28;20250;-66
2023/07/09 07:46:44;;;;;;;5.10;4.60;;;25.90;1.00;;;;;;8365780;28;20212;-66
2023/07/09 07:50:47;;;;;;;5.03;4.53;;;26.10;1.00;;;;;;8371784;28;20182;-69
2023/07/09 07:54:49;;;;;;;5.38;4.10;;;26.20;1.00;;;;;;8350484;28;20280;-65
2023/07/09 07:58:50;;;;;;;6.05;4.28;;;26.30;1.00;;;;;;8354183;28;20244;-66
2023/07/09 08:02:51;;;;;;;4.32;3.85;;;26.60;99.90;;;;;;8366824;28;20290;-64
2023/07/09 08:06:53;;;;;;;7.82;3.80;;;26.80;99.90;;;;;;8353860;28;20276;-67
2023/07/09 08:11:04;;;;;;;5.65;3.83;;;26.90;99.90;;;;;;8368111;28;20199;-67
2023/07/09 08:15:06;;;;;;;7.28;4.72;;;27.10;99.90;;;;;;8358294;28;20213;-68
2023/07/09 08:19:07;;;;;;;4.05;3.08;;;27.30;99.90;;;;;;8350560;28;20201;-67
2023/07/09 08:23:09;;;;;;;6.88;4.13;;;27.50;99.90;;;;;;8355885;28;20308;-66
2023/07/09 08:27:10;;;;;;;4.72;3.78;;;27.70;99.90;;;;;;8347637;28;20178;-66
2023/07/09 08:31:14;;;;;;;16.92;15.15;;;27.80;99.90;;;;;;8354802;28;20182;-67
2023/07/09 08:35:15;;;;;;;4.30;3.28;;;27.90;99.90;;;;;;8354044;28;20216;-66
2023/07/09 08:39:17;;;;;;;4.90;3.30;;;28.10;99.90;;;;;;8349958;28;20189;-68
2023/07/09 08:43:33;;;;;;;5.22;3.10;;;28.30;99.90;;;;;;8351536;28;20250;-68
2023/07/09 08:48:08;;;;;;;4.75;3.33;;;28.40;99.90;;;;;;8364388;28;20177;-67
2023/07/09 08:52:28;;;;;;;3.55;3.17;;;28.50;99.90;;;;;;8353288;28;20268;-66
2023/07/09 08:56:33;;;;;;;4.70;3.65;;;28.70;99.90;;;;;;8369303;28;20243;-67
2023/07/09 09:01:00;;;;;;;5.13;3.15;;;28.90;99.90;;;;;;8353043;28;20197;-69
2023/07/09 09:05:05;;;;;;;5.43;3.47;;;28.90;99.90;;;;;;8350925;28;20227;-66
2023/07/09 09:09:26;;;;;;;3.60;3.30;;;28.90;99.90;;;;;;8349637;28;20281;-67
2023/07/09 09:13:30;;;;;;;4.35;3.55;;;28.90;99.90;;;;;;8361438;28;20216;-66
2023/07/09 09:17:34;;;;;;;4.35;3.50;;;29.20;99.90;;;;;;8356430;28;20190;-68
2023/07/09 09:21:37;;;;;;;4.22;3.58;;;29.30;99.90;;;;;;8365812;28;20267;-65
2023/07/09 09:25:42;;;;;;;5.28;3.92;;;29.40;99.90;;;;;;8346980;28;20185;-66
2023/07/09 09:29:43;;;;;;;4.28;3.80;;;29.50;99.90;;;;;;8352201;28;20182;-66
2023/07/09 09:33:47;;;;;;;4.93;3.72;;;29.30;99.90;;;;;;8365843;28;20202;-66
2023/07/09 09:37:57;;;;;;;5.50;3.60;;;29.20;99.90;;;;;;8348818;28;20186;-69
2023/07/09 09:41:58;;;;;;;4.53;3.45;;;29.50;99.90;;;;;;8349076;28;20217;-67
2023/07/09 09:46:01;;;;;;;6.78;3.70;;;29.70;99.90;;;;;;8350202;28;20184;-66
2023/07/09 09:50:03;;;;;;;5.30;3.80;;;29.80;99.90;;;;;;8351114;28;20246;-65
2023/07/09 09:54:17;;;;;;;5.05;3.70;;;29.70;99.90;;;;;;8348964;28;20185;-66
2023/07/09 09:58:19;;;;;;;6.70;3.85;;;29.60;99.90;;;;;;8364144;28;20209;-66
2023/07/09 10:02:24;;;;;;;5.22;3.60;;;29.80;99.90;;;;;;8352072;28;20212;-66
2023/07/09 10:06:42;;;;;;;4.35;3.13;;;30.00;99.90;;;;;;8352254;28;20292;-66
2023/07/09 10:10:46;;;;;;;3.90;3.33;;;30.20;99.90;;;;;;8348416;28;20286;-64
2023/07/09 10:15:18;;;;;;;5.30;3.50;;;30.30;99.90;;;;;;8352598;28;20189;-68
2023/07/09 10:19:34;;;;;;;5.28;3.10;;;30.20;99.90;;;;;;8356009;28;20258;-68
2023/07/09 10:23:44;;;;;;;7.55;3.28;;;30.10;99.90;;;;;;8350086;28;20215;-66
2023/07/09 10:28:16;;;;;;;4.63;3.63;;;30.10;99.90;;;;;;8353750;28;20189;-64
2023/07/09 10:32:37;;;;;;;4.10;3.40;;;30.00;99.90;;;;;;8345488;28;20197;-67
2023/07/09 10:36:51;;;;;;;4.07;3.40;;;30.20;99.90;;;;;;8352281;28;20275;-69
2023/07/09 10:40:59;;;;;;;4.05;3.35;;;30.50;99.90;;;;;;8346173;28;20238;-68
2023/07/09 10:45:09;;;;;;;8.30;3.50;;;30.60;99.90;;;;;;8350010;28;20174;-68
2023/07/09 10:49:13;;;;;;;4.38;3.67;;;30.70;99.90;;;;;;8345768;28;20189;-66
2023/07/09 10:53:35;;;;;;;5.90;3.45;;;30.70;99.90;;;;;;8349500;28;20224;-68
2023/07/09 10:57:58;;;;;;;7.50;4.20;;;30.60;99.90;;;;;;8352836;28;20189;-67
2023/07/09 11:02:08;;;;;;;3.75;3.10;;;30.60;99.90;;;;;;8347079;28;20201;-70
2023/07/09 11:06:32;;;;;;;4.60;3.38;;;30.70;99.90;;;;;;8359676;28;20198;-67
2023/07/09 11:10:40;;;;;;;4.32;3.58;;;30.70;99.90;;;;;;8353157;28;20201;-66
2023/07/09 11:14:47;;;;;;;5.18;3.35;;;30.70;99.90;;;;;;8352142;28;20182;-71
2023/07/09 11:19:03;;;;;;;4.30;3.17;;;30.70;99.90;;;;;;8346836;28;20268;-68
2023/07/09 11:23:16;;;;;;;5.35;3.40;;;30.70;99.90;;;;;;8362407;28;20208;-69
2023/07/09 11:27:26;;;;;;;5.88;3.20;;;30.70;99.90;;;;;;8345988;28;20182;-66
2023/07/09 11:31:41;;;;;;;4.25;3.67;;;30.80;99.90;;;;;;8364189;28;20267;-66
2023/07/09 11:36:05;;;;;;;4.97;3.95;;;30.90;99.90;;;;;;8352493;28;20248;-70
2023/07/09 11:40:12;;;;;;;5.47;3.70;;;31.10;99.90;;;;;;8359887;28;20193;-65
2023/07/09 11:44:20;;;;;;;4.05;3.40;;;31.20;99.90;;;;;;8351719;28;20338;-70
2023/07/09 11:48:31;;;;;;;5.85;3.55;;;30.90;99.90;;;;;;8358920;28;20292;-68
2023/07/09 11:52:41;;;;;;;6.38;4.30;;;31.10;99.90;;;;;;8351972;28;20284;-66
2023/07/09 11:56:42;;;;;;;4.60;3.85;;;31.10;99.90;;;;;;8348680;28;20189;-70
2023/07/09 12:00:45;;;;;;;4.03;3.63;;;31.10;99.90;;;;;;8351139;28;20207;-69
2023/07/09 12:04:49;;;;;;;5.50;4.13;;;31.00;99.90;;;;;;8367463;28;20288;-67
2023/07/09 12:08:54;;;;;;;4.13;3.72;;;30.90;99.90;;;;;;8365353;28;20261;-68
2023/07/09 12:12:59;;;;;;;4.28;3.80;;;30.90;99.90;;;;;;8356065;28;20189;-66
2023/07/09 12:17:00;;;;;;;5.40;3.92;;;31.10;99.90;;;;;;8367191;28;20201;-70
2023/07/09 12:21:01;;;;;;;4.95;3.70;;;31.00;99.90;;;;;;8354923;28;20192;-68
2023/07/09 12:25:18;;;;;;;4.45;3.65;;;30.70;99.90;;;;;;8349413;28;20183;-65
2023/07/09 12:29:19;;;;;;;7.05;3.90;;;30.70;99.90;;;;;;8350855;28;20244;-69
2023/07/09 12:33:26;;;;;;;4.22;3.28;;;30.80;99.90;;;;;;8358489;28;20181;-70
2023/07/09 12:37:31;;;;;;;4.25;3.65;;;30.80;99.90;;;;;;8365668;28;20190;-72
2023/07/09 12:41:44;;;;;;;4.68;3.55;;;30.90;99.90;;;;;;8353741;28;20207;-69
2023/07/09 12:45:45;;;;;;;4.85;3.70;;;30.80;99.90;;;;;;8365478;28;20280;-66
2023/07/09 12:49:50;;;;;;;4.05;3.13;;;31.00;99.90;;;;;;8365922;28;20259;-70
2023/07/09 12:54:13;;;;;;;4.78;3.50;;;31.30;99.90;;;;;;8366256;28;20185;-71
2023/07/09 12:58:25;;;;;;;5.20;3.58;;;31.50;99.90;;;;;;8349772;28;20254;-67
2023/07/09 13:02:29;;;;;;;4.15;3.75;;;31.30;99.90;;;;;;8350059;28;20209;-69
2023/07/09 13:06:36;;;;;;;5.95;3.78;;;31.20;99.90;;;;;;8354787;28;20189;-70
2023/07/09 13:10:41;;;;;;;5.88;3.78;;;31.20;99.90;;;;;;8364486;28;20181;-67
2023/07/09 13:14:42;;;;;;;3.92;3.53;;;31.20;99.90;;;;;;8351020;28;20247;-71
2023/07/09 13:18:43;;;;;;;4.15;3.38;;;31.30;99.90;;;;;;8364049;28;20182;-69
2023/07/09 13:22:45;;;;;;;4.63;3.40;;;31.30;99.90;;;;;;8355581;28;20210;-69
2023/07/09 13:26:46;;;;;;;5.50;3.55;;;31.30;99.90;;;;;;8368582;28;20221;-71
2023/07/09 13:30:53;;;;;;;5.13;3.50;;;31.60;99.90;;;;;;8347402;28;20186;-66
2023/07/09 13:34:54;;;;;;;4.22;3.17;;;31.60;99.90;;;;;;8363472;28;20240;-71
2023/07/09 13:38:55;;;;;;;4.53;3.60;;;31.70;99.90;;;;;;8352071;28;20189;-67
2023/07/09 13:42:56;;;;;;;5.00;3.20;;;31.60;99.90;;;;;;8351950;28;20213;-67
2023/07/09 13:46:57;;;;;;;5.85;3.65;;;31.70;99.90;;;;;;8347403;28;20258;-68
2023/07/09 13:50:58;;;;;;;4.43;3.58;;;31.70;99.90;;;;;;8346309;28;20186;-68
2023/07/09 13:54:59;;;;;;;4.20;3.80;;;31.70;99.90;;;;;;8352485;28;20185;-71
2023/07/09 13:59:00;;;;;;;4.55;3.20;;;31.80;99.90;;;;;;8347809;28;20189;-68
2023/07/09 14:03:01;;;;;;;4.22;3.50;;;31.90;99.90;;;;;;8367625;28;20332;-68
2023/07/09 14:07:02;;;;;;;6.55;3.40;;;31.70;99.90;;;;;;8348381;28;20221;-70
2023/07/09 14:11:08;;;;;;;4.95;3.47;;;31.50;99.90;;;;;;8347561;28;20189;-71
2023/07/09 14:15:18;;;;;;;5.28;3.95;;;31.50;99.90;;;;;;8366354;28;20219;-71
2023/07/09 14:19:21;;;;;;;7.00;3.75;;;31.50;99.90;;;;;;8349071;28;20270;-70
2023/07/09 14:23:22;;;;;;;6.72;3.38;;;31.50;99.90;;;;;;8364843;28;20236;-70
2023/07/09 14:27:23;;;;;;;4.03;3.38;;;31.60;99.90;;;;;;8343598;28;20193;-73
2023/07/09 14:31:28;;;;;;;4.13;3.67;;;31.80;99.90;;;;;;8364095;28;20240;-68
2023/07/09 14:35:29;;;;;;;4.30;3.58;;;31.80;99.90;;;;;;8347831;28;20192;-69
2023/07/09 14:39:30;;;;;;;3.90;3.50;;;31.90;99.90;;;;;;8349206;28;20196;-69
2023/07/09 14:43:31;;;;;;;5.53;3.75;;;32.00;99.90;;;;;;8358600;28;20206;-70
2023/07/09 14:47:32;;;;;;;4.05;3.65;;;31.80;99.90;;;;;;8348562;28;20188;-66
2023/07/09 14:51:32;;;;;;;5.28;3.38;;;31.80;99.90;;;;;;8342591;28;20184;-72
2023/07/09 14:55:33;;;;;;;4.30;3.65;;;32.00;99.90;;;;;;8344851;28;20296;-72
2023/07/09 14:59:34;;;;;;;6.15;3.70;;;31.90;99.90;;;;;;8348830;28;20238;-70
2023/07/09 15:03:36;;;;;;;4.55;3.15;;;32.00;99.90;;;;;;8355147;28;20215;-69
2023/07/09 15:07:37;;;;;;;3.92;3.53;;;32.00;99.90;;;;;;8350505;28;20198;-69
2023/07/09 15:11:37;;;;;;;5.85;3.70;;;32.10;99.90;;;;;;8350956;28;20200;-72
2023/07/09 15:15:41;;;;;;;6.13;3.20;;;32.20;99.90;;;;;;8361153;28;20185;-70
2023/07/09 15:19:42;;;;;;;6.30;3.75;;;31.90;99.90;;;;;;8353477;28;20220;-74
2023/07/09 15:23:46;;;;;;;4.63;3.58;;;31.70;99.90;;;;;;8345731;28;20212;-73
2023/07/09 15:27:51;;;;;;;3.92;3.55;;;31.70;99.90;;;;;;8345270;28;20181;-69
2023/07/09 15:31:52;;;;;;;4.30;3.67;;;31.80;99.90;;;;;;8349645;28;20184;-73
2023/07/09 15:35:53;;;;;;;5.53;3.33;;;31.90;99.90;;;;;;8359481;28;20220;-67
2023/07/09 15:39:53;;;;;;;4.40;3.30;;;31.90;99.90;;;;;;8357638;28;20190;-69
2023/07/09 15:43:54;;;;;;;5.22;3.63;;;31.90;99.90;;;;;;8367889;28;20275;-68
2023/07/09 15:47:56;;;;;;;4.22;3.53;;;31.90;99.90;;;;;;8355244;28;20197;-72
2023/07/09 15:51:57;;;;;;;5.20;4.00;;;32.00;99.90;;;;;;8352705;28;20190;-70
2023/07/09 15:56:00;;;;;;;7.72;4.18;;;31.90;99.90;;;;;;8354013;28;20186;-67
2023/07/09 16:00:10;;;;;;;4.05;3.22;;;31.90;99.90;;;;;;8367050;28;20205;-69
2023/07/09 16:04:12;;;;;;;4.13;3.67;;;31.70;99.90;;;;;;8357337;28;20240;-70
2023/07/09 16:08:13;;;;;;;6.63;4.25;;;31.70;99.90;;;;;;8348317;28;20201;-66
2023/07/09 16:12:16;;;;;;;4.95;3.88;;;31.80;99.90;;;;;;8367589;28;20185;-71
2023/07/09 16:16:20;;;;;;;4.43;3.30;;;31.80;99.90;;;;;;8367502;28;20212;-71
2023/07/09 16:20:26;;;;;;;5.75;3.40;;;31.80;99.90;;;;;;8355370;28;20189;-67
2023/07/09 16:24:30;;;;;;;4.00;3.50;;;31.80;99.90;;;;;;8354354;28;20217;-68
2023/07/09 16:28:31;;;;;;;3.42;3.13;;;31.80;99.90;;;;;;8354207;28;20288;-69
2023/07/09 16:32:32;;;;;;;4.63;3.92;;;31.70;99.90;;;;;;8366634;28;20189;-69
2023/07/09 16:36:33;;;;;;;5.22;3.67;;;31.70;99.90;;;;;;8352700;28;20177;-68
2023/07/09 16:40:34;;;;;;;4.15;3.78;;;31.70;99.90;;;;;;8351628;28;20189;-70
2023/07/09 16:44:35;;;;;;;4.78;3.40;;;31.70;99.90;;;;;;8355144;28;20208;-73
2023/07/09 16:48:36;;;;;;;4.88;3.63;;;31.60;99.90;;;;;;8367176;28;20233;-67
2023/07/09 16:52:36;;;;;;;6.07;3.92;;;31.50;99.90;;;;;;8363544;28;20269;-65
2023/07/09 16:56:37;;;;;;;3.65;3.35;;;31.40;99.90;;;;;;8364530;28;20177;-70
2023/07/09 17:00:39;;;;;;;4.38;3.30;;;31.30;99.90;;;;;;8363733;28;20200;-66
2023/07/09 17:04:39;;;;;;;4.30;3.58;;;31.20;99.90;;;;;;8354063;28;20236;-69
2023/07/09 17:08:40;;;;;;;4.78;3.88;;;31.00;99.90;;;;;;8364560;28;20247;-68
2023/07/09 17:12:42;;;;;;;4.25;3.72;;;31.00;99.90;;;;;;8352410;28;20186;-64
2023/07/09 17:16:45;;;;;;;5.47;3.90;;;30.90;99.90;;;;;;8348278;28;20212;-70
2023/07/09 17:20:48;;;;;;;4.15;3.40;;;30.90;99.90;;;;;;8351412;28;20186;-65
2023/07/09 17:24:49;;;;;;;4.05;3.65;;;31.10;99.90;;;;;;8362352;28;20217;-68
2023/07/09 17:28:52;;;;;;;5.45;3.97;;;31.50;99.90;;;;;;8366270;28;20210;-66
2023/07/09 17:32:54;;;;;;;6.03;3.60;;;31.90;99.90;;;;;;8366657;28;20186;-70
2023/07/09 17:36:57;;;;;;;4.20;3.55;;;32.20;99.90;;;;;;8351410;28;20288;-69
2023/07/09 17:40:58;;;;;;;5.05;3.80;;;32.40;99.90;;;;;;8366585;28;20181;-69
2023/07/09 17:44:59;;;;;;;4.10;3.70;;;32.40;99.90;;;;;;8350616;28;20247;-67
2023/07/09 17:49:01;;;;;;;4.65;4.15;;;32.50;99.90;;;;;;8356830;28;20188;-71
2023/07/09 17:53:04;;;;;;;7.00;5.97;;;32.60;99.90;;;;;;8350696;28;20189;-69
2023/07/09 17:57:05;;;;;;;6.68;5.20;;;32.70;99.90;;;;;;8347632;28;20273;-68
2023/07/09 18:01:07;;;;;;;6.80;5.05;;;32.70;99.90;;;;;;8345726;28;20202;-68
2023/07/09 18:05:25;;;;;;;4.53;3.85;;;32.60;99.90;;;;;;8366418;28;20201;-69
2023/07/09 18:09:27;;;;;;;4.07;3.67;;;32.40;99.90;;;;;;8352393;28;20253;-69
2023/07/09 18:13:32;;;;;;;4.43;3.92;;;32.30;99.90;;;;;;8364518;28;20226;-69
2023/07/09 18:17:35;;;;;;;5.60;3.85;;;32.10;99.90;;;;;;8363538;28;20189;-68
2023/07/09 18:21:36;;;;;;;4.60;3.70;;;31.70;99.90;;;;;;8362962;28;20197;-70
2023/07/09 18:25:39;;;;;;;4.78;3.88;;;31.10;99.90;;;;;;8350855;28;20182;-68
2023/07/09 18:29:41;;;;;;;3.42;3.13;;;30.60;99.90;;;;;;8364355;28;20188;-67
2023/07/09 18:33:41;;;;;;;3.80;3.50;;;30.10;99.90;;;;;;8351117;28;20261;-67
2023/07/09 18:37:42;;;;;;;3.70;3.40;;;29.50;99.90;;;;;;8353503;28;20177;-68
2023/07/09 18:41:43;;;;;;;3.80;3.42;;;28.70;99.90;;;;;;8343215;28;20208;-68
2023/07/09 18:45:47;;;;;;;3.55;3.25;;;27.90;99.90;;;;;;8345076;28;20182;-68
2023/07/09 18:49:48;;;;;;;3.70;3.40;;;27.20;99.90;;;;;;8350325;28;20193;-65
2023/07/09 18:53:50;;;;;;;6.97;4.03;;;26.70;99.90;;;;;;8334275;28;20193;-66
2023/07/09 18:57:51;;;;;;;3.63;3.33;;;26.30;99.90;;;;;;8351127;28;20190;-66
2023/07/09 19:01:52;;;;;;;4.30;3.90;;;25.80;99.90;;;;;;8334638;28;20212;-66
2023/07/09 19:05:54;;;;;;;4.07;3.67;;;25.30;99.90;;;;;;8351043;28;20209;-67
2023/07/09 19:09:57;;;;;;;4.17;3.77;;;24.80;99.90;;;;;;8366121;28;20184;-66
2023/07/09 19:13:58;;;;;;;4.90;3.87;;;24.40;99.90;;;;;;8359544;28;20289;-65
2023/07/09 19:17:59;;;;;;;4.03;3.63;;;24.00;99.90;;;;;;8359004;28;20190;-65
2023/07/09 19:22:01;;;;;;;4.37;3.97;;;23.70;99.90;;;;;;8353570;28;20238;-66
2023/07/09 19:26:02;;;;;;;4.60;4.20;;;23.40;99.90;;;;;;8352637;28;20192;-66
2023/07/09 19:30:08;;;;;;;4.47;4.07;;;23.20;99.90;;;;;;8354538;28;20242;-66
2023/07/09 19:34:24;;;;;;;4.90;4.47;;;23.00;99.90;;;;;;8354101;28;20196;-66
2023/07/09 19:38:25;;;;;;;4.53;4.13;;;22.70;99.90;;;;;;8352482;28;20185;-65
2023/07/09 19:42:26;;;;;;;5.57;4.80;;;22.50;99.90;;;;;;8368766;28;20244;-64
2023/07/09 19:46:27;;;;;;;5.97;4.83;;;22.30;99.90;;;;;;8356719;28;20234;-64
2023/07/09 19:50:35;;;;;;;5.60;4.90;;;22.10;99.90;;;;;;8351270;28;20224;-64
2023/07/09 19:54:36;;;;;;;4.97;4.50;;;21.90;1.00;;;;;;8349560;28;20181;-64
2023/07/09 19:58:37;;;;;;;6.50;5.60;;;21.70;1.00;;;;;;8367239;28;20196;-65
2023/07/09 20:02:41;;;;;;;5.20;4.70;;;21.50;1.00;;;;;;8349011;28;20315;-65
2023/07/09 20:06:42;;;;;;;5.10;4.63;;;21.30;1.00;;;;;;8350912;28;20277;-65
2023/07/09 20:10:43;;;;;;;5.07;4.57;;;21.20;1.00;;;;;;8354055;28;20177;-64
2023/07/09 20:14:44;;;;;;;4.83;4.33;;;21.00;1.00;;;;;;8345566;28;20182;-65
2023/07/09 20:18:45;;;;;;;5.43;4.93;;;20.80;1.00;;;;;;8351180;28;20186;-64
2023/07/09 20:22:47;;;;;;;5.80;5.07;;;20.60;1.00;;;;;;8365955;28;20217;-64
2023/07/09 20:26:49;;;;;;;6.00;5.00;;;20.50;1.00;;;;;;8366282;28;20193;-64
2023/07/09 20:30:53;;;;;;;5.47;5.00;;;20.30;1.00;;;;;;8349789;28;20193;-64
2023/07/09 20:34:55;;;;;;;5.53;5.03;;;20.20;1.00;;;;;;8365287;28;20196;-65
2023/07/09 20:38:56;;;;;;;6.80;5.07;;;20.00;1.00;;;;;;8355630;28;20186;-64
2023/07/09 20:42:57;;;;;;;4.70;4.30;;;19.80;1.00;;;;;;8365625;28;20231;-65
2023/07/09 20:46:58;;;;;;;5.80;5.20;;;19.70;1.00;;;;;;8363903;28;20182;-64
2023/07/09 20:50:59;;;;;;;5.70;5.07;;;19.50;1.00;;;;;;8354340;28;20181;-64
2023/07/09 20:55:00;;;;;;;5.47;4.97;;;19.40;1.00;;;;;;8366421;28;20284;-63
2023/07/09 20:59:04;;;;;;;5.43;4.93;;;19.30;1.00;;;;;;8351300;28;20242;-65
2023/07/09 21:03:08;;;;;;;5.63;5.13;;;19.20;1.00;;;;;;8349978;28;20216;-65
2023/07/09 21:07:11;;;;;;;5.37;4.87;;;19.10;1.00;;;;;;8368967;28;20200;-64
2023/07/09 21:11:12;;;;;;;5.60;5.10;;;19.00;1.00;;;;;;8362712;28;20205;-65
2023/07/09 21:15:30;;;;;;;5.00;4.50;;;18.90;1.00;;;;;;8353336;28;20189;-65